0124 UTC 04 September 2015 found at http://aviationweather.gov/adds/metars/
 
METAR text: KMNH 040114Z AUTO 00000KT 10SM DZ SCT024 BKN080 OVC100 15/12 A3014 RMK AO2 LTG DSNT SE P0001
Conditions at: KMNH (MONUMENT/ELBERT , CO, US) observed 0114 UTC 04 September 2015
Temperature: 15.0°C (59°F)
Dewpoint: 12.0°C (54°F) [RH = 82%]
Pressure (altimeter): 30.14 inches Hg (1020.7 mb)
Winds: calm
Visibility: 10 or more miles (16+ km)
Ceiling: 8000 feet AGL
Clouds: scattered clouds at 2400 feet AGL
broken clouds at 8000 feet AGL
overcast cloud deck at 10000 feet AGL
Weather: DZ  (drizzle)

METAR text: KMNH 040054Z AUTO 22004KT 10SM -TSRA SCT036 BKN080 OVC110 15/13 A3015 RMK AO2 LTG DSNT SE
Conditions at: KMNH (MONUMENT/ELBERT , CO, US) observed 0054 UTC 04 September 2015
Temperature: 15.0°C (59°F)
Dewpoint: 13.0°C (55°F) [RH = 88%]
Pressure (altimeter): 30.15 inches Hg (1021.1 mb)
Winds: from the SW (220 degrees) at 5 MPH (4 knots; 2.1 m/s)
Visibility: 10 or more miles (16+ km)
Ceiling: 8000 feet AGL
Clouds: scattered clouds at 3600 feet AGL
broken clouds at 8000 feet AGL
overcast cloud deck at 11000 feet AGL
Weather: -TSRA  (light rain associated with thunderstorm(s))

METAR text: KMNH 040034Z AUTO 33008KT 10SM BKN100 15/12 A3013 RMK AO2
Conditions at: KMNH (MONUMENT/ELBERT , CO, US) observed 0034 UTC 04 September 2015
Temperature: 15.0°C (59°F)
Dewpoint: 12.0°C (54°F) [RH = 82%]
Pressure (altimeter): 30.13 inches Hg (1020.4 mb)
Winds: from the NNW (330 degrees) at 9 MPH (8 knots; 4.2 m/s)
Visibility: 10 or more miles (16+ km)
Ceiling: 10000 feet AGL
Clouds: broken clouds at 10000 feet AGL
Weather: automated observation with no human augmentation;
there may or may not be significant weather present at this time

METAR text: KMNH 040014Z AUTO 36009KT 10SM SCT047 SCT065 BKN110 15/12 A3012 RMK AO2 LTG DSNT S
Conditions at: KMNH (MONUMENT/ELBERT , CO, US) observed 0014 UTC 04 September 2015
Temperature: 15.0°C (59°F)
Dewpoint: 12.0°C (54°F) [RH = 82%]
Pressure (altimeter): 30.12 inches Hg (1020.1 mb)
Winds: from the N (360 degrees) at 10 MPH (9 knots; 4.7 m/s)
Visibility: 10 or more miles (16+ km)
Ceiling: 11000 feet AGL
Clouds: scattered clouds at 4700 feet AGL
scattered clouds at 6500 feet AGL
broken clouds at 11000 feet AGL
Weather: automated observation with no human augmentation;
there may or may not be significant weather present at this time

METAR text: KMNH 032354Z AUTO 32014KT 10SM -RA SCT041 SCT060 OVC070 13/11 A3013 RMK AO2 LTG DSNT NE AND S P0002
Conditions at: KMNH (MONUMENT/ELBERT , CO, US) observed 2354 UTC 03 September 2015
Temperature: 13.0°C (55°F)
Dewpoint: 11.0°C (52°F) [RH = 88%]
Pressure (altimeter): 30.13 inches Hg (1020.4 mb)
Winds: from the NW (320 degrees) at 16 MPH (14 knots; 7.3 m/s)
Visibility: 10 or more miles (16+ km)
Ceiling: 7000 feet AGL
Clouds: scattered clouds at 4100 feet AGL
scattered clouds at 6000 feet AGL
overcast cloud deck at 7000 feet AGL
Weather: -RA  (light rain)

METAR text: KMNH 032334Z AUTO 28012G23KT 10SM -VCTSRA SCT050 OVC080 13/11 A3014 RMK AO2 LTG DSNT S THRU NW
Conditions at: KMNH (MONUMENT/ELBERT , CO, US) observed 2334 UTC 03 September 2015
Temperature: 13.0°C (55°F)
Dewpoint: 11.0°C (52°F) [RH = 88%]
Pressure (altimeter): 30.14 inches Hg (1020.7 mb)
Winds: from the W (280 degrees) at 14 MPH (12 knots; 6.2 m/sgusting to 26 MPH (23 knots; 12.0 m/s)
Visibility: 10 or more miles (16+ km)
Ceiling: 8000 feet AGL
Clouds: scattered clouds at 5000 feet AGL
overcast cloud deck at 8000 feet AGL
Weather: VCTS -RA  (thunderstorm in vicinity, light rain)

METAR text: KMNH 032314Z AUTO 27021G29KT 10SM DZ SCT075 OVC085 16/11 A3014 RMK AO2 LTG DSNT NE AND NW
Conditions at: KMNH (MONUMENT/ELBERT , CO, US) observed 2314 UTC 03 September 2015
Temperature: 16.0°C (61°F)
Dewpoint: 11.0°C (52°F) [RH = 72%]
Pressure (altimeter): 30.14 inches Hg (1020.7 mb)
Winds: from the W (270 degrees) at 24 MPH (21 knots; 10.9 m/sgusting to 33 MPH (29 knots; 15.1 m/s)
Visibility: 10 or more miles (16+ km)
Ceiling: 8500 feet AGL
Clouds: scattered clouds at 7500 feet AGL
overcast cloud deck at 8500 feet AGL
Weather: DZ  (drizzle)

METAR text: KMNH 032254Z AUTO 32009KT 10SM -RA OVC085 17/10 A3011 RMK AO2
Conditions at: KMNH (MONUMENT/ELBERT , CO, US) observed 2254 UTC 03 September 2015
Temperature: 17.0°C (63°F)
Dewpoint: 10.0°C (50°F) [RH = 63%]
Pressure (altimeter): 30.11 inches Hg (1019.7 mb)
Winds: from the NW (320 degrees) at 10 MPH (9 knots; 4.7 m/s)
Visibility: 10 or more miles (16+ km)
Ceiling: 8500 feet AGL
Clouds: overcast cloud deck at 8500 feet AGL
Weather: -RA  (light rain)

METAR text: KMNH 032234Z AUTO 32010G16KT 10SM OVC095 18/08 A3012 RMK AO2
Conditions at: KMNH (MONUMENT/ELBERT , CO, US) observed 2234 UTC 03 September 2015
Temperature: 18.0°C (64°F)
Dewpoint: 8.0°C (46°F) [RH = 52%]
Pressure (altimeter): 30.12 inches Hg (1020.1 mb)
Winds: from the NW (320 degrees) at 12 MPH (10 knots; 5.2 m/sgusting to 18 MPH (16 knots; 8.3 m/s)
Visibility: 10 or more miles (16+ km)
Ceiling: 9500 feet AGL
Clouds: overcast cloud deck at 9500 feet AGL
Weather: automated observation with no human augmentation;
there may or may not be significant weather present at this time

METAR text: KMNH 032214Z AUTO 32011G16KT 10SM TS BKN095 OVC120 19/08 A3011 RMK AO2 LTG DSNT SW THRU N
Conditions at: KMNH (MONUMENT/ELBERT , CO, US) observed 2214 UTC 03 September 2015
Temperature: 19.0°C (66°F)
Dewpoint: 8.0°C (46°F) [RH = 49%]
Pressure (altimeter): 30.11 inches Hg (1019.7 mb)
Winds: from the NW (320 degrees) at 13 MPH (11 knots; 5.7 m/sgusting to 18 MPH (16 knots; 8.3 m/s)
Visibility: 10 or more miles (16+ km)
Ceiling: 9500 feet AGL
Clouds: broken clouds at 9500 feet AGL
overcast cloud deck at 12000 feet AGL
Weather: TS  (thunderstorm)

METAR text: KMNH 032154Z AUTO 27012KT 10SM -VCTSRA BKN085 OVC100 21/08 A3011 RMK AO2 LTG DSNT W AND NW
Conditions at: KMNH (MONUMENT/ELBERT , CO, US) observed 2154 UTC 03 September 2015
Temperature: 21.0°C (70°F)
Dewpoint: 8.0°C (46°F) [RH = 43%]
Pressure (altimeter): 30.11 inches Hg (1019.7 mb)
Winds: from the W (270 degrees) at 14 MPH (12 knots; 6.2 m/s)
Visibility: 10 or more miles (16+ km)
Ceiling: 8500 feet AGL
Clouds: broken clouds at 8500 feet AGL
overcast cloud deck at 10000 feet AGL
Weather: VCTS -RA  (thunderstorm in vicinity, light rain)

METAR text: KMNH 032134Z AUTO 09003KT 10SM SCT085 BKN110 22/06 A3011 RMK AO2 LTG DSNT SW
Conditions at: KMNH (MONUMENT/ELBERT , CO, US) observed 2134 UTC 03 September 2015
Temperature: 22.0°C (72°F)
Dewpoint: 6.0°C (43°F) [RH = 35%]
Pressure (altimeter): 30.11 inches Hg (1019.7 mb)
Winds: from the E (90 degrees) at 3 MPH (3 knots; 1.6 m/s)
Visibility: 10 or more miles (16+ km)
Ceiling: 11000 feet AGL
Clouds: scattered clouds at 8500 feet AGL
broken clouds at 11000 feet AGL
Weather: automated observation with no human augmentation;
there may or may not be significant weather present at this time

METAR text: KMNH 032114Z AUTO 10005KT 10SM SCT120 23/05 A3011 RMK AO2 LTG DSNT SW
Conditions at: KMNH (MONUMENT/ELBERT , CO, US) observed 2114 UTC 03 September 2015
Temperature: 23.0°C (73°F)
Dewpoint: 5.0°C (41°F) [RH = 31%]
Pressure (altimeter): 30.11 inches Hg (1019.7 mb)
Winds: from the E (100 degrees) at 6 MPH (5 knots; 2.6 m/s)
Visibility: 10 or more miles (16+ km)
Ceiling: at least 12,000 feet AGL
Clouds: scattered clouds at 12000 feet AGL
Weather: automated observation with no human augmentation;
there may or may not be significant weather present at this time

METAR text: KMNH 032033Z AUTO 04008KT 10SM SCT120 25/06 A3011 RMK AO2 LTG DSNT SW AND NW
Conditions at: KMNH (MONUMENT/ELBERT , CO, US) observed 2033 UTC 03 September 2015
Temperature: 25.0°C (77°F)
Dewpoint: 6.0°C (43°F) [RH = 30%]
Pressure (altimeter): 30.11 inches Hg (1019.7 mb)
Winds: from the NE (40 degrees) at 9 MPH (8 knots; 4.2 m/s)
Visibility: 10 or more miles (16+ km)
Ceiling: at least 12,000 feet AGL
Clouds: scattered clouds at 12000 feet AGL
Weather: automated observation with no human augmentation;
there may or may not be significant weather present at this time

METAR text: KMNH 032014Z AUTO 05007G16KT 10SM CLR 25/05 A3012 RMK AO2 LTG DSNT SW AND NW
Conditions at: KMNH (MONUMENT/ELBERT , CO, US) observed 2014 UTC 03 September 2015
Temperature: 25.0°C (77°F)
Dewpoint: 5.0°C (41°F) [RH = 28%]
Pressure (altimeter): 30.12 inches Hg (1020.1 mb)
Winds: from the NE (50 degrees) at 8 MPH (7 knots; 3.6 m/sgusting to 18 MPH (16 knots; 8.3 m/s)
Visibility: 10 or more miles (16+ km)
Ceiling: at least 12,000 feet AGL
Clouds: sky clear below 12,000 feet AGL
Weather: automated observation with no human augmentation;
there may or may not be significant weather present at this time

METAR text: KMNH 031954Z AUTO 03009G14KT 360V090 10SM CLR 24/05 A3013 RMK AO2
Conditions at: KMNH (MONUMENT/ELBERT , CO, US) observed 1954 UTC 03 September 2015
Temperature: 24.0°C (75°F)
Dewpoint: 5.0°C (41°F) [RH = 29%]
Pressure (altimeter): 30.13 inches Hg (1020.4 mb)
Winds: from the NNE (30 degrees) at 10 MPH (9 knots; 4.7 m/sgusting to 16 MPH (14 knots; 7.3 m/s)
Visibility: 10 or more miles (16+ km)
Ceiling: at least 12,000 feet AGL
Clouds: sky clear below 12,000 feet AGL
Weather: automated observation with no human augmentation;
there may or may not be significant weather present at this time

METAR text: KMNH 031933Z AUTO 01005KT 10SM CLR 24/05 A3013 RMK AO2 LTG DSNT NW
Conditions at: KMNH (MONUMENT/ELBERT , CO, US) observed 1933 UTC 03 September 2015
Temperature: 24.0°C (75°F)
Dewpoint: 5.0°C (41°F) [RH = 29%]
Pressure (altimeter): 30.13 inches Hg (1020.4 mb)
Winds: from the N (10 degrees) at 6 MPH (5 knots; 2.6 m/s)
Visibility: 10 or more miles (16+ km)
Ceiling: at least 12,000 feet AGL
Clouds: sky clear below 12,000 feet AGL
Weather: automated observation with no human augmentation;
there may or may not be significant weather present at this time

METAR text: KMNH 031914Z AUTO 04009G16KT 10SM CLR 24/05 A3014 RMK AO2
Conditions at: KMNH (MONUMENT/ELBERT , CO, US) observed 1914 UTC 03 September 2015
Temperature: 24.0°C (75°F)
Dewpoint: 5.0°C (41°F) [RH = 29%]
Pressure (altimeter): 30.14 inches Hg (1020.7 mb)
Winds: from the NE (40 degrees) at 10 MPH (9 knots; 4.7 m/sgusting to 18 MPH (16 knots; 8.3 m/s)
Visibility: 10 or more miles (16+ km)
Ceiling: at least 12,000 feet AGL
Clouds: sky clear below 12,000 feet AGL
Weather: automated observation with no human augmentation;
there may or may not be significant weather present at this time

METAR text: KMNH 031854Z AUTO 02011G16KT 10SM CLR 23/05 A3014 RMK AO2 LTG DSNT NW
Conditions at: KMNH (MONUMENT/ELBERT , CO, US) observed 1854 UTC 03 September 2015
Temperature: 23.0°C (73°F)
Dewpoint: 5.0°C (41°F) [RH = 31%]
Pressure (altimeter): 30.14 inches Hg (1020.7 mb)
Winds: from the NNE (20 degrees) at 13 MPH (11 knots; 5.7 m/sgusting to 18 MPH (16 knots; 8.3 m/s)
Visibility: 10 or more miles (16+ km)
Ceiling: at least 12,000 feet AGL
Clouds: sky clear below 12,000 feet AGL
Weather: automated observation with no human augmentation;
there may or may not be significant weather present at this time

METAR text: KMNH 031834Z AUTO 02011G17KT 10SM SCT110 24/05 A3016 RMK AO2 LTG DSNT SW
Conditions at: KMNH (MONUMENT/ELBERT , CO, US) observed 1834 UTC 03 September 2015
Temperature: 24.0°C (75°F)
Dewpoint: 5.0°C (41°F) [RH = 29%]
Pressure (altimeter): 30.16 inches Hg (1021.4 mb)
Winds: from the NNE (20 degrees) at 13 MPH (11 knots; 5.7 m/sgusting to 20 MPH (17 knots; 8.8 m/s)
Visibility: 10 or more miles (16+ km)
Ceiling: at least 12,000 feet AGL
Clouds: scattered clouds at 11000 feet AGL
Weather: automated observation with no human augmentation;
there may or may not be significant weather present at this time

METAR text: KMNH 031814Z AUTO 01008G18KT 10SM BKN110 24/05 A3016 RMK AO2 LTG DSNT NW
Conditions at: KMNH (MONUMENT/ELBERT , CO, US) observed 1814 UTC 03 September 2015
Temperature: 24.0°C (75°F)
Dewpoint: 5.0°C (41°F) [RH = 29%]
Pressure (altimeter): 30.16 inches Hg (1021.4 mb)
Winds: from the N (10 degrees) at 9 MPH (8 knots; 4.2 m/sgusting to 21 MPH (18 knots; 9.4 m/s)
Visibility: 10 or more miles (16+ km)
Ceiling: 11000 feet AGL
Clouds: broken clouds at 11000 feet AGL
Weather: automated observation with no human augmentation;
there may or may not be significant weather present at this time

METAR text: KMNH 031754Z AUTO 36008KT 10SM SCT100 BKN110 23/05 A3017 RMK AO2
Conditions at: KMNH (MONUMENT/ELBERT , CO, US) observed 1754 UTC 03 September 2015
Temperature: 23.0°C (73°F)
Dewpoint: 5.0°C (41°F) [RH = 31%]
Pressure (altimeter): 30.17 inches Hg (1021.8 mb)
Winds: from the N (360 degrees) at 9 MPH (8 knots; 4.2 m/s)
Visibility: 10 or more miles (16+ km)
Ceiling: 11000 feet AGL
Clouds: scattered clouds at 10000 feet AGL
broken clouds at 11000 feet AGL
Weather: automated observation with no human augmentation;
there may or may not be significant weather present at this time

METAR text: KMNH 031733Z AUTO 01008KT 10SM BKN090 BKN110 21/05 A3018 RMK AO2 LTG DSNT W
Conditions at: KMNH (MONUMENT/ELBERT , CO, US) observed 1733 UTC 03 September 2015
Temperature: 21.0°C (70°F)
Dewpoint: 5.0°C (41°F) [RH = 35%]
Pressure (altimeter): 30.18 inches Hg (1022.1 mb)
Winds: from the N (10 degrees) at 9 MPH (8 knots; 4.2 m/s)
Visibility: 10 or more miles (16+ km)
Ceiling: 9000 feet AGL
Clouds: broken clouds at 9000 feet AGL
broken clouds at 11000 feet AGL
Weather: automated observation with no human augmentation;
there may or may not be significant weather present at this time

METAR text: KMNH 031714Z AUTO 36007KT 10SM BKN090 BKN110 21/06 A3018 RMK AO2
Conditions at: KMNH (MONUMENT/ELBERT , CO, US) observed 1714 UTC 03 September 2015
Temperature: 21.0°C (70°F)
Dewpoint: 6.0°C (43°F) [RH = 38%]
Pressure (altimeter): 30.18 inches Hg (1022.1 mb)
Winds: from the N (360 degrees) at 8 MPH (7 knots; 3.6 m/s)
Visibility: 10 or more miles (16+ km)
Ceiling: 9000 feet AGL
Clouds: broken clouds at 9000 feet AGL
broken clouds at 11000 feet AGL
Weather: automated observation with no human augmentation;
there may or may not be significant weather present at this time

METAR text: KMNH 031653Z AUTO 35005KT 10SM SCT080 BKN110 21/06 A3019 RMK AO2 LTG DSNT W
Conditions at: KMNH (MONUMENT/ELBERT , CO, US) observed 1653 UTC 03 September 2015
Temperature: 21.0°C (70°F)
Dewpoint: 6.0°C (43°F) [RH = 38%]
Pressure (altimeter): 30.19 inches Hg (1022.4 mb)
Winds: from the N (350 degrees) at 6 MPH (5 knots; 2.6 m/s)
Visibility: 10 or more miles (16+ km)
Ceiling: 11000 feet AGL
Clouds: scattered clouds at 8000 feet AGL
broken clouds at 11000 feet AGL
Weather: automated observation with no human augmentation;
there may or may not be significant weather present at this time

METAR text: KMNH 031634Z AUTO 29004KT 10SM SCT060 BKN080 BKN100 21/06 A3019 RMK AO2
Conditions at: KMNH (MONUMENT/ELBERT , CO, US) observed 1634 UTC 03 September 2015
Temperature: 21.0°C (70°F)
Dewpoint: 6.0°C (43°F) [RH = 38%]
Pressure (altimeter): 30.19 inches Hg (1022.4 mb)
Winds: from the WNW (290 degrees) at 5 MPH (4 knots; 2.1 m/s)
Visibility: 10 or more miles (16+ km)
Ceiling: 8000 feet AGL
Clouds: scattered clouds at 6000 feet AGL
broken clouds at 8000 feet AGL
broken clouds at 10000 feet AGL
Weather: automated observation with no human augmentation;
there may or may not be significant weather present at this time

METAR text: KMNH 031614Z AUTO 00000KT 10SM OVC100 20/06 A3019 RMK AO2 LTG DSNT W
Conditions at: KMNH (MONUMENT/ELBERT , CO, US) observed 1614 UTC 03 September 2015
Temperature: 20.0°C (68°F)
Dewpoint: 6.0°C (43°F) [RH = 40%]
Pressure (altimeter): 30.19 inches Hg (1022.4 mb)
Winds: calm
Visibility: 10 or more miles (16+ km)
Ceiling: 10000 feet AGL
Clouds: overcast cloud deck at 10000 feet AGL
Weather: automated observation with no human augmentation;
there may or may not be significant weather present at this time

METAR text: KMNH 031554Z AUTO 00000KT 10SM SCT085 OVC100 20/05 A3018 RMK AO2 LTG DSNT N
Conditions at: KMNH (MONUMENT/ELBERT , CO, US) observed 1554 UTC 03 September 2015
Temperature: 20.0°C (68°F)
Dewpoint: 5.0°C (41°F) [RH = 37%]
Pressure (altimeter): 30.18 inches Hg (1022.1 mb)
Winds: calm
Visibility: 10 or more miles (16+ km)
Ceiling: 10000 feet AGL
Clouds: scattered clouds at 8500 feet AGL
overcast cloud deck at 10000 feet AGL
Weather: automated observation with no human augmentation;
there may or may not be significant weather present at this time

METAR text: KMNH 031534Z AUTO 00000KT 10SM BKN100 BKN120 20/07 A3018 RMK AO2 LTG DSNT W
Conditions at: KMNH (MONUMENT/ELBERT , CO, US) observed 1534 UTC 03 September 2015
Temperature: 20.0°C (68°F)
Dewpoint: 7.0°C (45°F) [RH = 43%]
Pressure (altimeter): 30.18 inches Hg (1022.1 mb)
Winds: calm
Visibility: 10 or more miles (16+ km)
Ceiling: 10000 feet AGL
Clouds: broken clouds at 10000 feet AGL
broken clouds at 12000 feet AGL
Weather: automated observation with no human augmentation;
there may or may not be significant weather present at this time

METAR text: KMNH 031514Z AUTO 32004KT 10SM SCT085 OVC110 20/07 A3017 RMK AO2
Conditions at: KMNH (MONUMENT/ELBERT , CO, US) observed 1514 UTC 03 September 2015
Temperature: 20.0°C (68°F)
Dewpoint: 7.0°C (45°F) [RH = 43%]
Pressure (altimeter): 30.17 inches Hg (1021.8 mb)
Winds: from the NW (320 degrees) at 5 MPH (4 knots; 2.1 m/s)
Visibility: 10 or more miles (16+ km)
Ceiling: 11000 feet AGL
Clouds: scattered clouds at 8500 feet AGL
overcast cloud deck at 11000 feet AGL
Weather: automated observation with no human augmentation;
there may or may not be significant weather present at this time

METAR text: KMNH 031454Z AUTO 00000KT 10SM BKN110 20/05 A3017 RMK AO2
Conditions at: KMNH (MONUMENT/ELBERT , CO, US) observed 1454 UTC 03 September 2015
Temperature: 20.0°C (68°F)
Dewpoint: 5.0°C (41°F) [RH = 37%]
Pressure (altimeter): 30.17 inches Hg (1021.8 mb)
Winds: calm
Visibility: 10 or more miles (16+ km)
Ceiling: 11000 feet AGL
Clouds: broken clouds at 11000 feet AGL
Weather: automated observation with no human augmentation;
there may or may not be significant weather present at this time

METAR text: KMNH 031434Z AUTO 00000KT 10SM CLR 18/05 A3017 RMK AO2 LTG DSNT W
Conditions at: KMNH (MONUMENT/ELBERT , CO, US) observed 1434 UTC 03 September 2015
Temperature: 18.0°C (64°F)
Dewpoint: 5.0°C (41°F) [RH = 42%]
Pressure (altimeter): 30.17 inches Hg (1021.8 mb)
Winds: calm
Visibility: 10 or more miles (16+ km)
Ceiling: at least 12,000 feet AGL
Clouds: sky clear below 12,000 feet AGL
Weather: automated observation with no human augmentation;
there may or may not be significant weather present at this time

METAR text: KMNH 031414Z AUTO 29003KT 10SM SCT110 17/07 A3017 RMK AO2 LTG DSNT W
Conditions at: KMNH (MONUMENT/ELBERT , CO, US) observed 1414 UTC 03 September 2015
Temperature: 17.0°C (63°F)
Dewpoint: 7.0°C (45°F) [RH = 52%]
Pressure (altimeter): 30.17 inches Hg (1021.8 mb)
Winds: from the WNW (290 degrees) at 3 MPH (3 knots; 1.6 m/s)
Visibility: 10 or more miles (16+ km)
Ceiling: at least 12,000 feet AGL
Clouds: scattered clouds at 11000 feet AGL
Weather: automated observation with no human augmentation;
there may or may not be significant weather present at this time

METAR text: KMNH 031354Z AUTO 31003KT 10SM BKN110 17/05 A3017 RMK AO2
Conditions at: KMNH (MONUMENT/ELBERT , CO, US) observed 1354 UTC 03 September 2015
Temperature: 17.0°C (63°F)
Dewpoint: 5.0°C (41°F) [RH = 45%]
Pressure (altimeter): 30.17 inches Hg (1021.8 mb)
Winds: from the NW (310 degrees) at 3 MPH (3 knots; 1.6 m/s)
Visibility: 10 or more miles (16+ km)
Ceiling: 11000 feet AGL
Clouds: broken clouds at 11000 feet AGL
Weather: automated observation with no human augmentation;
there may or may not be significant weather present at this time

METAR text: KMNH 031334Z AUTO 00000KT 10SM OVC110 17/05 A3016 RMK AO2 LTG DSNT W
Conditions at: KMNH (MONUMENT/ELBERT , CO, US) observed 1334 UTC 03 September 2015
Temperature: 17.0°C (63°F)
Dewpoint: 5.0°C (41°F) [RH = 45%]
Pressure (altimeter): 30.16 inches Hg (1021.4 mb)
Winds: calm
Visibility: 10 or more miles (16+ km)
Ceiling: 11000 feet AGL
Clouds: overcast cloud deck at 11000 feet AGL
Weather: automated observation with no human augmentation;
there may or may not be significant weather present at this time

METAR text: KMNH 031314Z AUTO 29004KT 10SM OVC110 16/05 A3016 RMK AO2
Conditions at: KMNH (MONUMENT/ELBERT , CO, US) observed 1314 UTC 03 September 2015
Temperature: 16.0°C (61°F)
Dewpoint: 5.0°C (41°F) [RH = 48%]
Pressure (altimeter): 30.16 inches Hg (1021.4 mb)
Winds: from the WNW (290 degrees) at 5 MPH (4 knots; 2.1 m/s)
Visibility: 10 or more miles (16+ km)
Ceiling: 11000 feet AGL
Clouds: overcast cloud deck at 11000 feet AGL
Weather: automated observation with no human augmentation;
there may or may not be significant weather present at this time

METAR text: KMNH 031253Z AUTO 26006KT 10SM OVC110 16/05 A3016 RMK AO2
Conditions at: KMNH (MONUMENT/ELBERT , CO, US) observed 1253 UTC 03 September 2015
Temperature: 16.0°C (61°F)
Dewpoint: 5.0°C (41°F) [RH = 48%]
Pressure (altimeter): 30.16 inches Hg (1021.4 mb)
Winds: from the W (260 degrees) at 7 MPH (6 knots; 3.1 m/s)
Visibility: 10 or more miles (16+ km)
Ceiling: 11000 feet AGL
Clouds: overcast cloud deck at 11000 feet AGL
Weather: automated observation with no human augmentation;
there may or may not be significant weather present at this time

METAR text: KMNH 031234Z AUTO 26005KT 10SM OVC110 15/05 A3016 RMK AO2
Conditions at: KMNH (MONUMENT/ELBERT , CO, US) observed 1234 UTC 03 September 2015
Temperature: 15.0°C (59°F)
Dewpoint: 5.0°C (41°F) [RH = 51%]
Pressure (altimeter): 30.16 inches Hg (1021.4 mb)
Winds: from the W (260 degrees) at 6 MPH (5 knots; 2.6 m/s)
Visibility: 10 or more miles (16+ km)
Ceiling: 11000 feet AGL
Clouds: overcast cloud deck at 11000 feet AGL
Weather: automated observation with no human augmentation;
there may or may not be significant weather present at this time

METAR text: KMNH 031214Z AUTO 26007KT 10SM BKN120 15/05 A3015 RMK AO2
Conditions at: KMNH (MONUMENT/ELBERT , CO, US) observed 1214 UTC 03 September 2015
Temperature: 15.0°C (59°F)
Dewpoint: 5.0°C (41°F) [RH = 51%]
Pressure (altimeter): 30.15 inches Hg (1021.1 mb)
Winds: from the W (260 degrees) at 8 MPH (7 knots; 3.6 m/s)
Visibility: 10 or more miles (16+ km)
Ceiling: 12000 feet AGL
Clouds: broken clouds at 12000 feet AGL
Weather: automated observation with no human augmentation;
there may or may not be significant weather present at this time

METAR text: KMNH 031154Z AUTO 25006KT 10SM OVC120 15/05 A3016 RMK AO2 LTG DSNT SW
Conditions at: KMNH (MONUMENT/ELBERT , CO, US) observed 1154 UTC 03 September 2015
Temperature: 15.0°C (59°F)
Dewpoint: 5.0°C (41°F) [RH = 51%]
Pressure (altimeter): 30.16 inches Hg (1021.4 mb)
Winds: from the WSW (250 degrees) at 7 MPH (6 knots; 3.1 m/s)
Visibility: 10 or more miles (16+ km)
Ceiling: 12000 feet AGL
Clouds: overcast cloud deck at 12000 feet AGL
Weather: automated observation with no human augmentation;
there may or may not be significant weather present at this time

METAR text: KMNH 031134Z AUTO 24007KT 10SM BKN120 16/04 A3016 RMK AO2
Conditions at: KMNH (MONUMENT/ELBERT , CO, US) observed 1134 UTC 03 September 2015
Temperature: 16.0°C (61°F)
Dewpoint: 4.0°C (39°F) [RH = 45%]
Pressure (altimeter): 30.16 inches Hg (1021.4 mb)
Winds: from the WSW (240 degrees) at 8 MPH (7 knots; 3.6 m/s)
Visibility: 10 or more miles (16+ km)
Ceiling: 12000 feet AGL
Clouds: broken clouds at 12000 feet AGL
Weather: automated observation with no human augmentation;
there may or may not be significant weather present at this time

METAR text: KMNH 031114Z AUTO 24007KT 10SM SCT120 16/04 A3015 RMK AO2
Conditions at: KMNH (MONUMENT/ELBERT , CO, US) observed 1114 UTC 03 September 2015
Temperature: 16.0°C (61°F)
Dewpoint: 4.0°C (39°F) [RH = 45%]
Pressure (altimeter): 30.15 inches Hg (1021.1 mb)
Winds: from the WSW (240 degrees) at 8 MPH (7 knots; 3.6 m/s)
Visibility: 10 or more miles (16+ km)
Ceiling: at least 12,000 feet AGL
Clouds: scattered clouds at 12000 feet AGL
Weather: automated observation with no human augmentation;
there may or may not be significant weather present at this time

METAR text: KMNH 031054Z AUTO 24007KT 10SM SCT120 17/03 A3015 RMK AO2
Conditions at: KMNH (MONUMENT/ELBERT , CO, US) observed 1054 UTC 03 September 2015
Temperature: 17.0°C (63°F)
Dewpoint: 3.0°C (37°F) [RH = 39%]
Pressure (altimeter): 30.15 inches Hg (1021.1 mb)
Winds: from the WSW (240 degrees) at 8 MPH (7 knots; 3.6 m/s)
Visibility: 10 or more miles (16+ km)
Ceiling: at least 12,000 feet AGL
Clouds: scattered clouds at 12000 feet AGL
Weather: automated observation with no human augmentation;
there may or may not be significant weather present at this time

METAR text: KMNH 031034Z AUTO 24007KT 10SM SCT120 16/04 A3014 RMK AO2
Conditions at: KMNH (MONUMENT/ELBERT , CO, US) observed 1034 UTC 03 September 2015
Temperature: 16.0°C (61°F)
Dewpoint: 4.0°C (39°F) [RH = 45%]
Pressure (altimeter): 30.14 inches Hg (1020.7 mb)
Winds: from the WSW (240 degrees) at 8 MPH (7 knots; 3.6 m/s)
Visibility: 10 or more miles (16+ km)
Ceiling: at least 12,000 feet AGL
Clouds: scattered clouds at 12000 feet AGL
Weather: automated observation with no human augmentation;
there may or may not be significant weather present at this time

METAR text: KMNH 031014Z AUTO 23006KT 10SM BKN120 17/03 A3015 RMK AO2
Conditions at: KMNH (MONUMENT/ELBERT , CO, US) observed 1014 UTC 03 September 2015
Temperature: 17.0°C (63°F)
Dewpoint: 3.0°C (37°F) [RH = 39%]
Pressure (altimeter): 30.15 inches Hg (1021.1 mb)
Winds: from the SW (230 degrees) at 7 MPH (6 knots; 3.1 m/s)
Visibility: 10 or more miles (16+ km)
Ceiling: 12000 feet AGL
Clouds: broken clouds at 12000 feet AGL
Weather: automated observation with no human augmentation;
there may or may not be significant weather present at this time

METAR text: KMNH 030954Z AUTO 22005KT 10SM BKN120 16/04 A3015 RMK AO2
Conditions at: KMNH (MONUMENT/ELBERT , CO, US) observed 0954 UTC 03 September 2015
Temperature: 16.0°C (61°F)
Dewpoint: 4.0°C (39°F) [RH = 45%]
Pressure (altimeter): 30.15 inches Hg (1021.1 mb)
Winds: from the SW (220 degrees) at 6 MPH (5 knots; 2.6 m/s)
Visibility: 10 or more miles (16+ km)
Ceiling: 12000 feet AGL
Clouds: broken clouds at 12000 feet AGL
Weather: automated observation with no human augmentation;
there may or may not be significant weather present at this time

METAR text: KMNH 030934Z AUTO 23007KT 10SM SCT120 17/03 A3015 RMK AO2
Conditions at: KMNH (MONUMENT/ELBERT , CO, US) observed 0934 UTC 03 September 2015
Temperature: 17.0°C (63°F)
Dewpoint: 3.0°C (37°F) [RH = 39%]
Pressure (altimeter): 30.15 inches Hg (1021.1 mb)
Winds: from the SW (230 degrees) at 8 MPH (7 knots; 3.6 m/s)
Visibility: 10 or more miles (16+ km)
Ceiling: at least 12,000 feet AGL
Clouds: scattered clouds at 12000 feet AGL
Weather: automated observation with no human augmentation;
there may or may not be significant weather present at this time

METAR text: KMNH 030914Z AUTO 24008KT 10SM SCT120 17/03 A3014 RMK AO2
Conditions at: KMNH (MONUMENT/ELBERT , CO, US) observed 0914 UTC 03 September 2015
Temperature: 17.0°C (63°F)
Dewpoint: 3.0°C (37°F) [RH = 39%]
Pressure (altimeter): 30.14 inches Hg (1020.7 mb)
Winds: from the WSW (240 degrees) at 9 MPH (8 knots; 4.2 m/s)
Visibility: 10 or more miles (16+ km)
Ceiling: at least 12,000 feet AGL
Clouds: scattered clouds at 12000 feet AGL
Weather: automated observation with no human augmentation;
there may or may not be significant weather present at this time

METAR text: KMNH 030854Z AUTO 24008KT 10SM BKN120 16/03 A3014 RMK AO2
Conditions at: KMNH (MONUMENT/ELBERT , CO, US) observed 0854 UTC 03 September 2015
Temperature: 16.0°C (61°F)
Dewpoint: 3.0°C (37°F) [RH = 42%]
Pressure (altimeter): 30.14 inches Hg (1020.7 mb)
Winds: from the WSW (240 degrees) at 9 MPH (8 knots; 4.2 m/s)
Visibility: 10 or more miles (16+ km)
Ceiling: 12000 feet AGL
Clouds: broken clouds at 12000 feet AGL
Weather: automated observation with no human augmentation;
there may or may not be significant weather present at this time

METAR text: KMNH 030834Z AUTO 25007KT 10SM OVC120 17/04 A3014 RMK AO2 LTG DSNT SW
Conditions at: KMNH (MONUMENT/ELBERT , CO, US) observed 0834 UTC 03 September 2015
Temperature: 17.0°C (63°F)
Dewpoint: 4.0°C (39°F) [RH = 42%]
Pressure (altimeter): 30.14 inches Hg (1020.7 mb)
Winds: from the WSW (250 degrees) at 8 MPH (7 knots; 3.6 m/s)
Visibility: 10 or more miles (16+ km)
Ceiling: 12000 feet AGL
Clouds: overcast cloud deck at 12000 feet AGL
Weather: automated observation with no human augmentation;
there may or may not be significant weather present at this time

METAR text: KMNH 030814Z AUTO 23007KT 10SM SCT110 16/04 A3015 RMK AO2
Conditions at: KMNH (MONUMENT/ELBERT , CO, US) observed 0814 UTC 03 September 2015
Temperature: 16.0°C (61°F)
Dewpoint: 4.0°C (39°F) [RH = 45%]
Pressure (altimeter): 30.15 inches Hg (1021.1 mb)
Winds: from the SW (230 degrees) at 8 MPH (7 knots; 3.6 m/s)
Visibility: 10 or more miles (16+ km)
Ceiling: at least 12,000 feet AGL
Clouds: scattered clouds at 11000 feet AGL
Weather: automated observation with no human augmentation;
there may or may not be significant weather present at this time

METAR text: KMNH 030754Z AUTO 24008KT 10SM CLR 16/03 A3016 RMK AO2
Conditions at: KMNH (MONUMENT/ELBERT , CO, US) observed 0754 UTC 03 September 2015
Temperature: 16.0°C (61°F)
Dewpoint: 3.0°C (37°F) [RH = 42%]
Pressure (altimeter): 30.16 inches Hg (1021.4 mb)
Winds: from the WSW (240 degrees) at 9 MPH (8 knots; 4.2 m/s)
Visibility: 10 or more miles (16+ km)
Ceiling: at least 12,000 feet AGL
Clouds: sky clear below 12,000 feet AGL
Weather: automated observation with no human augmentation;
there may or may not be significant weather present at this time

METAR text: KMNH 030734Z AUTO 24009KT 10SM CLR 15/05 A3016 RMK AO2
Conditions at: KMNH (MONUMENT/ELBERT , CO, US) observed 0734 UTC 03 September 2015
Temperature: 15.0°C (59°F)
Dewpoint: 5.0°C (41°F) [RH = 51%]
Pressure (altimeter): 30.16 inches Hg (1021.4 mb)
Winds: from the WSW (240 degrees) at 10 MPH (9 knots; 4.7 m/s)
Visibility: 10 or more miles (16+ km)
Ceiling: at least 12,000 feet AGL
Clouds: sky clear below 12,000 feet AGL
Weather: automated observation with no human augmentation;
there may or may not be significant weather present at this time

METAR text: KMNH 030714Z AUTO 21006KT 10SM CLR 15/04 A3016 RMK AO2
Conditions at: KMNH (MONUMENT/ELBERT , CO, US) observed 0714 UTC 03 September 2015
Temperature: 15.0°C (59°F)
Dewpoint: 4.0°C (39°F) [RH = 48%]
Pressure (altimeter): 30.16 inches Hg (1021.4 mb)
Winds: from the SSW (210 degrees) at 7 MPH (6 knots; 3.1 m/s)
Visibility: 10 or more miles (16+ km)
Ceiling: at least 12,000 feet AGL
Clouds: sky clear below 12,000 feet AGL
Weather: automated observation with no human augmentation;
there may or may not be significant weather present at this time

METAR text: KMNH 030654Z AUTO 20007KT 10SM CLR 17/04 A3017 RMK AO2
Conditions at: KMNH (MONUMENT/ELBERT , CO, US) observed 0654 UTC 03 September 2015
Temperature: 17.0°C (63°F)
Dewpoint: 4.0°C (39°F) [RH = 42%]
Pressure (altimeter): 30.17 inches Hg (1021.8 mb)
Winds: from the SSW (200 degrees) at 8 MPH (7 knots; 3.6 m/s)
Visibility: 10 or more miles (16+ km)
Ceiling: at least 12,000 feet AGL
Clouds: sky clear below 12,000 feet AGL
Weather: automated observation with no human augmentation;
there may or may not be significant weather present at this time

METAR text: KMNH 030634Z AUTO 20006KT 10SM CLR 16/04 A3017 RMK AO2
Conditions at: KMNH (MONUMENT/ELBERT , CO, US) observed 0634 UTC 03 September 2015
Temperature: 16.0°C (61°F)
Dewpoint: 4.0°C (39°F) [RH = 45%]
Pressure (altimeter): 30.17 inches Hg (1021.8 mb)
Winds: from the SSW (200 degrees) at 7 MPH (6 knots; 3.1 m/s)
Visibility: 10 or more miles (16+ km)
Ceiling: at least 12,000 feet AGL
Clouds: sky clear below 12,000 feet AGL
Weather: automated observation with no human augmentation;
there may or may not be significant weather present at this time

METAR text: KMNH 030614Z AUTO 20010KT 10SM CLR 16/04 A3018 RMK AO2
Conditions at: KMNH (MONUMENT/ELBERT , CO, US) observed 0614 UTC 03 September 2015
Temperature: 16.0°C (61°F)
Dewpoint: 4.0°C (39°F) [RH = 45%]
Pressure (altimeter): 30.18 inches Hg (1022.1 mb)
Winds: from the SSW (200 degrees) at 12 MPH (10 knots; 5.2 m/s)
Visibility: 10 or more miles (16+ km)
Ceiling: at least 12,000 feet AGL
Clouds: sky clear below 12,000 feet AGL
Weather: automated observation with no human augmentation;
there may or may not be significant weather present at this time

METAR text: KMNH 030554Z AUTO 21007KT 10SM CLR 16/05 A3018 RMK AO2
Conditions at: KMNH (MONUMENT/ELBERT , CO, US) observed 0554 UTC 03 September 2015
Temperature: 16.0°C (61°F)
Dewpoint: 5.0°C (41°F) [RH = 48%]
Pressure (altimeter): 30.18 inches Hg (1022.1 mb)
Winds: from the SSW (210 degrees) at 8 MPH (7 knots; 3.6 m/s)
Visibility: 10 or more miles (16+ km)
Ceiling: at least 12,000 feet AGL
Clouds: sky clear below 12,000 feet AGL
Weather: automated observation with no human augmentation;
there may or may not be significant weather present at this time

METAR text: KMNH 030534Z AUTO 21007KT 10SM CLR 16/05 A3018 RMK AO2
Conditions at: KMNH (MONUMENT/ELBERT , CO, US) observed 0534 UTC 03 September 2015
Temperature: 16.0°C (61°F)
Dewpoint: 5.0°C (41°F) [RH = 48%]
Pressure (altimeter): 30.18 inches Hg (1022.1 mb)
Winds: from the SSW (210 degrees) at 8 MPH (7 knots; 3.6 m/s)
Visibility: 10 or more miles (16+ km)
Ceiling: at least 12,000 feet AGL
Clouds: sky clear below 12,000 feet AGL
Weather: automated observation with no human augmentation;
there may or may not be significant weather present at this time

METAR text: KMNH 030514Z AUTO 25007KT 10SM CLR 16/05 A3019 RMK AO2
Conditions at: KMNH (MONUMENT/ELBERT , CO, US) observed 0514 UTC 03 September 2015
Temperature: 16.0°C (61°F)
Dewpoint: 5.0°C (41°F) [RH = 48%]
Pressure (altimeter): 30.19 inches Hg (1022.4 mb)
Winds: from the WSW (250 degrees) at 8 MPH (7 knots; 3.6 m/s)
Visibility: 10 or more miles (16+ km)
Ceiling: at least 12,000 feet AGL
Clouds: sky clear below 12,000 feet AGL
Weather: automated observation with no human augmentation;
there may or may not be significant weather present at this time

METAR text: KMNH 030454Z AUTO 20006KT 10SM CLR 16/05 A3019 RMK AO2
Conditions at: KMNH (MONUMENT/ELBERT , CO, US) observed 0454 UTC 03 September 2015
Temperature: 16.0°C (61°F)
Dewpoint: 5.0°C (41°F) [RH = 48%]
Pressure (altimeter): 30.19 inches Hg (1022.4 mb)
Winds: from the SSW (200 degrees) at 7 MPH (6 knots; 3.1 m/s)
Visibility: 10 or more miles (16+ km)
Ceiling: at least 12,000 feet AGL
Clouds: sky clear below 12,000 feet AGL
Weather: automated observation with no human augmentation;
there may or may not be significant weather present at this time

METAR text: KMNH 030434Z AUTO 21006KT 10SM CLR 17/05 A3019 RMK AO2
Conditions at: KMNH (MONUMENT/ELBERT , CO, US) observed 0434 UTC 03 September 2015
Temperature: 17.0°C (63°F)
Dewpoint: 5.0°C (41°F) [RH = 45%]
Pressure (altimeter): 30.19 inches Hg (1022.4 mb)
Winds: from the SSW (210 degrees) at 7 MPH (6 knots; 3.1 m/s)
Visibility: 10 or more miles (16+ km)
Ceiling: at least 12,000 feet AGL
Clouds: sky clear below 12,000 feet AGL
Weather: automated observation with no human augmentation;
there may or may not be significant weather present at this time

METAR text: KMNH 030414Z AUTO 21005KT 10SM CLR 16/06 A3020 RMK AO2
Conditions at: KMNH (MONUMENT/ELBERT , CO, US) observed 0414 UTC 03 September 2015
Temperature: 16.0°C (61°F)
Dewpoint: 6.0°C (43°F) [RH = 51%]
Pressure (altimeter): 30.20 inches Hg (1022.8 mb)
Winds: from the SSW (210 degrees) at 6 MPH (5 knots; 2.6 m/s)
Visibility: 10 or more miles (16+ km)
Ceiling: at least 12,000 feet AGL
Clouds: sky clear below 12,000 feet AGL
Weather: automated observation with no human augmentation;
there may or may not be significant weather present at this time

METAR text: KMNH 030354Z AUTO 19005KT 10SM CLR 16/06 A3020 RMK AO2
Conditions at: KMNH (MONUMENT/ELBERT , CO, US) observed 0354 UTC 03 September 2015
Temperature: 16.0°C (61°F)
Dewpoint: 6.0°C (43°F) [RH = 51%]
Pressure (altimeter): 30.20 inches Hg (1022.8 mb)
Winds: from the S (190 degrees) at 6 MPH (5 knots; 2.6 m/s)
Visibility: 10 or more miles (16+ km)
Ceiling: at least 12,000 feet AGL
Clouds: sky clear below 12,000 feet AGL
Weather: automated observation with no human augmentation;
there may or may not be significant weather present at this time

METAR text: KMNH 030334Z AUTO 17007KT 10SM CLR 18/05 A3020 RMK AO2
Conditions at: KMNH (MONUMENT/ELBERT , CO, US) observed 0334 UTC 03 September 2015
Temperature: 18.0°C (64°F)
Dewpoint: 5.0°C (41°F) [RH = 42%]
Pressure (altimeter): 30.20 inches Hg (1022.8 mb)
Winds: from the S (170 degrees) at 8 MPH (7 knots; 3.6 m/s)
Visibility: 10 or more miles (16+ km)
Ceiling: at least 12,000 feet AGL
Clouds: sky clear below 12,000 feet AGL
Weather: automated observation with no human augmentation;
there may or may not be significant weather present at this time

METAR text: KMNH 030314Z AUTO 17009KT 10SM CLR 17/06 A3020 RMK AO2
Conditions at: KMNH (MONUMENT/ELBERT , CO, US) observed 0314 UTC 03 September 2015
Temperature: 17.0°C (63°F)
Dewpoint: 6.0°C (43°F) [RH = 48%]
Pressure (altimeter): 30.20 inches Hg (1022.8 mb)
Winds: from the S (170 degrees) at 10 MPH (9 knots; 4.7 m/s)
Visibility: 10 or more miles (16+ km)
Ceiling: at least 12,000 feet AGL
Clouds: sky clear below 12,000 feet AGL
Weather: automated observation with no human augmentation;
there may or may not be significant weather present at this time

METAR text: KMNH 030254Z AUTO 16006KT 10SM SCT110 18/06 A3019 RMK AO2
Conditions at: KMNH (MONUMENT/ELBERT , CO, US) observed 0254 UTC 03 September 2015
Temperature: 18.0°C (64°F)
Dewpoint: 6.0°C (43°F) [RH = 45%]
Pressure (altimeter): 30.19 inches Hg (1022.4 mb)
Winds: from the SSE (160 degrees) at 7 MPH (6 knots; 3.1 m/s)
Visibility: 10 or more miles (16+ km)
Ceiling: at least 12,000 feet AGL
Clouds: scattered clouds at 11000 feet AGL
Weather: automated observation with no human augmentation;
there may or may not be significant weather present at this time

METAR text: KMNH 030234Z AUTO 16005KT 10SM SCT110 18/05 A3019 RMK AO2
Conditions at: KMNH (MONUMENT/ELBERT , CO, US) observed 0234 UTC 03 September 2015
Temperature: 18.0°C (64°F)
Dewpoint: 5.0°C (41°F) [RH = 42%]
Pressure (altimeter): 30.19 inches Hg (1022.4 mb)
Winds: from the SSE (160 degrees) at 6 MPH (5 knots; 2.6 m/s)
Visibility: 10 or more miles (16+ km)
Ceiling: at least 12,000 feet AGL
Clouds: scattered clouds at 11000 feet AGL
Weather: automated observation with no human augmentation;
there may or may not be significant weather present at this time

METAR text: KMNH 030214Z AUTO 18006KT 10SM BKN110 18/08 A3018 RMK AO2
Conditions at: KMNH (MONUMENT/ELBERT , CO, US) observed 0214 UTC 03 September 2015
Temperature: 18.0°C (64°F)
Dewpoint: 8.0°C (46°F) [RH = 52%]
Pressure (altimeter): 30.18 inches Hg (1022.1 mb)
Winds: from the S (180 degrees) at 7 MPH (6 knots; 3.1 m/s)
Visibility: 10 or more miles (16+ km)
Ceiling: 11000 feet AGL
Clouds: broken clouds at 11000 feet AGL
Weather: automated observation with no human augmentation;
there may or may not be significant weather present at this time

METAR text: KMNH 030154Z AUTO 17005KT 10SM OVC110 19/08 A3018 RMK AO2
Conditions at: KMNH (MONUMENT/ELBERT , CO, US) observed 0154 UTC 03 September 2015
Temperature: 19.0°C (66°F)
Dewpoint: 8.0°C (46°F) [RH = 49%]
Pressure (altimeter): 30.18 inches Hg (1022.1 mb)
Winds: from the S (170 degrees) at 6 MPH (5 knots; 2.6 m/s)
Visibility: 10 or more miles (16+ km)
Ceiling: 11000 feet AGL
Clouds: overcast cloud deck at 11000 feet AGL
Weather: automated observation with no human augmentation;
there may or may not be significant weather present at this time

METAR text: KMNH 030134Z AUTO 16004KT 10SM BKN120 21/05 A3017 RMK AO2
Conditions at: KMNH (MONUMENT/ELBERT , CO, US) observed 0134 UTC 03 September 2015
Temperature: 21.0°C (70°F)
Dewpoint: 5.0°C (41°F) [RH = 35%]
Pressure (altimeter): 30.17 inches Hg (1021.8 mb)
Winds: from the SSE (160 degrees) at 5 MPH (4 knots; 2.1 m/s)
Visibility: 10 or more miles (16+ km)
Ceiling: 12000 feet AGL
Clouds: broken clouds at 12000 feet AGL
Weather: automated observation with no human augmentation;
there may or may not be significant weather present at this time

METAR text: KMNH 030114Z AUTO 14005KT 10SM SCT120 21/05 A3017 RMK AO2
Conditions at: KMNH (MONUMENT/ELBERT , CO, US) observed 0114 UTC 03 September 2015
Temperature: 21.0°C (70°F)
Dewpoint: 5.0°C (41°F) [RH = 35%]
Pressure (altimeter): 30.17 inches Hg (1021.8 mb)
Winds: from the SE (140 degrees) at 6 MPH (5 knots; 2.6 m/s)
Visibility: 10 or more miles (16+ km)
Ceiling: at least 12,000 feet AGL
Clouds: scattered clouds at 12000 feet AGL
Weather: automated observation with no human augmentation;
there may or may not be significant weather present at this time

METAR text: KMNH 030054Z AUTO 14003KT 10SM SCT110 22/06 A3017 RMK AO2
Conditions at: KMNH (MONUMENT/ELBERT , CO, US) observed 0054 UTC 03 September 2015
Temperature: 22.0°C (72°F)
Dewpoint: 6.0°C (43°F) [RH = 35%]
Pressure (altimeter): 30.17 inches Hg (1021.8 mb)
Winds: from the SE (140 degrees) at 3 MPH (3 knots; 1.6 m/s)
Visibility: 10 or more miles (16+ km)
Ceiling: at least 12,000 feet AGL
Clouds: scattered clouds at 11000 feet AGL
Weather: automated observation with no human augmentation;
there may or may not be significant weather present at this time

METAR text: KMNH 030034Z AUTO 12005KT 10SM SCT120 23/07 A3016 RMK AO2
Conditions at: KMNH (MONUMENT/ELBERT , CO, US) observed 0034 UTC 03 September 2015
Temperature: 23.0°C (73°F)
Dewpoint: 7.0°C (45°F) [RH = 36%]
Pressure (altimeter): 30.16 inches Hg (1021.4 mb)
Winds: from the ESE (120 degrees) at 6 MPH (5 knots; 2.6 m/s)
Visibility: 10 or more miles (16+ km)
Ceiling: at least 12,000 feet AGL
Clouds: scattered clouds at 12000 feet AGL
Weather: automated observation with no human augmentation;
there may or may not be significant weather present at this time

METAR text: KMNH 030014Z AUTO 00000KT 10SM SCT120 24/06 A3016 RMK AO2
Conditions at: KMNH (MONUMENT/ELBERT , CO, US) observed 0014 UTC 03 September 2015
Temperature: 24.0°C (75°F)
Dewpoint: 6.0°C (43°F) [RH = 31%]
Pressure (altimeter): 30.16 inches Hg (1021.4 mb)
Winds: calm
Visibility: 10 or more miles (16+ km)
Ceiling: at least 12,000 feet AGL
Clouds: scattered clouds at 12000 feet AGL
Weather: automated observation with no human augmentation;
there may or may not be significant weather present at this time

METAR text: KMNH 022353Z AUTO 10003KT 10SM CLR 23/06 A3017 RMK AO2 LTG DSNT W
Conditions at: KMNH (MONUMENT/ELBERT , CO, US) observed 2353 UTC 02 September 2015
Temperature: 23.0°C (73°F)
Dewpoint: 6.0°C (43°F) [RH = 33%]
Pressure (altimeter): 30.17 inches Hg (1021.8 mb)
Winds: from the E (100 degrees) at 3 MPH (3 knots; 1.6 m/s)
Visibility: 10 or more miles (16+ km)
Ceiling: at least 12,000 feet AGL
Clouds: sky clear below 12,000 feet AGL
Weather: automated observation with no human augmentation;
there may or may not be significant weather present at this time

METAR text: KMNH 022334Z AUTO 13005KT 10SM CLR 23/05 A3017 RMK AO2 LTG DSNT W
Conditions at: KMNH (MONUMENT/ELBERT , CO, US) observed 2334 UTC 02 September 2015
Temperature: 23.0°C (73°F)
Dewpoint: 5.0°C (41°F) [RH = 31%]
Pressure (altimeter): 30.17 inches Hg (1021.8 mb)
Winds: from the SE (130 degrees) at 6 MPH (5 knots; 2.6 m/s)
Visibility: 10 or more miles (16+ km)
Ceiling: at least 12,000 feet AGL
Clouds: sky clear below 12,000 feet AGL
Weather: automated observation with no human augmentation;
there may or may not be significant weather present at this time

METAR text: KMNH 022314Z AUTO 14003KT 10SM CLR 26/01 A3016 RMK AO2 LTG DSNT W
Conditions at: KMNH (MONUMENT/ELBERT , CO, US) observed 2314 UTC 02 September 2015
Temperature: 26.0°C (79°F)
Dewpoint: 1.0°C (34°F) [RH = 20%]
Pressure (altimeter): 30.16 inches Hg (1021.4 mb)
Winds: from the SE (140 degrees) at 3 MPH (3 knots; 1.6 m/s)
Visibility: 10 or more miles (16+ km)
Ceiling: at least 12,000 feet AGL
Clouds: sky clear below 12,000 feet AGL
Weather: automated observation with no human augmentation;
there may or may not be significant weather present at this time

METAR text: KMNH 022254Z AUTO 14003KT 10SM CLR 25/02 A3017 RMK AO2
Conditions at: KMNH (MONUMENT/ELBERT , CO, US) observed 2254 UTC 02 September 2015
Temperature: 25.0°C (77°F)
Dewpoint: 2.0°C (36°F) [RH = 22%]
Pressure (altimeter): 30.17 inches Hg (1021.8 mb)
Winds: from the SE (140 degrees) at 3 MPH (3 knots; 1.6 m/s)
Visibility: 10 or more miles (16+ km)
Ceiling: at least 12,000 feet AGL
Clouds: sky clear below 12,000 feet AGL
Weather: automated observation with no human augmentation;
there may or may not be significant weather present at this time

METAR text: KMNH 022234Z AUTO 00000KT 10SM CLR 26/01 A3017 RMK AO2
Conditions at: KMNH (MONUMENT/ELBERT , CO, US) observed 2234 UTC 02 September 2015
Temperature: 26.0°C (79°F)
Dewpoint: 1.0°C (34°F) [RH = 20%]
Pressure (altimeter): 30.17 inches Hg (1021.8 mb)
Winds: calm
Visibility: 10 or more miles (16+ km)
Ceiling: at least 12,000 feet AGL
Clouds: sky clear below 12,000 feet AGL
Weather: automated observation with no human augmentation;
there may or may not be significant weather present at this time

METAR text: KMNH 022213Z AUTO 16004KT 10SM CLR 25/01 A3018 RMK AO2
Conditions at: KMNH (MONUMENT/ELBERT , CO, US) observed 2213 UTC 02 September 2015
Temperature: 25.0°C (77°F)
Dewpoint: 1.0°C (34°F) [RH = 21%]
Pressure (altimeter): 30.18 inches Hg (1022.1 mb)
Winds: from the SSE (160 degrees) at 5 MPH (4 knots; 2.1 m/s)
Visibility: 10 or more miles (16+ km)
Ceiling: at least 12,000 feet AGL
Clouds: sky clear below 12,000 feet AGL
Weather: automated observation with no human augmentation;
there may or may not be significant weather present at this time

METAR text: KMNH 022153Z AUTO 14005KT 10SM SCT120 27/01 A3018 RMK AO2
Conditions at: KMNH (MONUMENT/ELBERT , CO, US) observed 2153 UTC 02 September 2015
Temperature: 27.0°C (81°F)
Dewpoint: 1.0°C (34°F) [RH = 18%]
Pressure (altimeter): 30.18 inches Hg (1022.1 mb)
Winds: from the SE (140 degrees) at 6 MPH (5 knots; 2.6 m/s)
Visibility: 10 or more miles (16+ km)
Ceiling: at least 12,000 feet AGL
Clouds: scattered clouds at 12000 feet AGL
Weather: automated observation with no human augmentation;
there may or may not be significant weather present at this time

METAR text: KMNH 022134Z AUTO 00000KT 10SM CLR 26/00 A3018 RMK AO2
Conditions at: KMNH (MONUMENT/ELBERT , CO, US) observed 2134 UTC 02 September 2015
Temperature: 26.0°C (79°F)
Dewpoint: 0.0°C (32°F) [RH = 18%]
Pressure (altimeter): 30.18 inches Hg (1022.1 mb)
Winds: calm
Visibility: 10 or more miles (16+ km)
Ceiling: at least 12,000 feet AGL
Clouds: sky clear below 12,000 feet AGL
Weather: automated observation with no human augmentation;
there may or may not be significant weather present at this time

METAR text: KMNH 022114Z AUTO 10006KT 10SM CLR 26/00 A3019 RMK AO2
Conditions at: KMNH (MONUMENT/ELBERT , CO, US) observed 2114 UTC 02 September 2015
Temperature: 26.0°C (79°F)
Dewpoint: 0.0°C (32°F) [RH = 18%]
Pressure (altimeter): 30.19 inches Hg (1022.4 mb)
Winds: from the E (100 degrees) at 7 MPH (6 knots; 3.1 m/s)
Visibility: 10 or more miles (16+ km)
Ceiling: at least 12,000 feet AGL
Clouds: sky clear below 12,000 feet AGL
Weather: automated observation with no human augmentation;
there may or may not be significant weather present at this time

METAR text: KMNH 022053Z AUTO 08004KT 10SM SCT110 25/01 A3020 RMK AO2
Conditions at: KMNH (MONUMENT/ELBERT , CO, US) observed 2053 UTC 02 September 2015
Temperature: 25.0°C (77°F)
Dewpoint: 1.0°C (34°F) [RH = 21%]
Pressure (altimeter): 30.20 inches Hg (1022.8 mb)
Winds: from the E (80 degrees) at 5 MPH (4 knots; 2.1 m/s)
Visibility: 10 or more miles (16+ km)
Ceiling: at least 12,000 feet AGL
Clouds: scattered clouds at 11000 feet AGL
Weather: automated observation with no human augmentation;
there may or may not be significant weather present at this time

METAR text: KMNH 022033Z AUTO 21004KT 10SM SCT110 25/00 A3021 RMK AO2 LTG DSNT SW
Conditions at: KMNH (MONUMENT/ELBERT , CO, US) observed 2033 UTC 02 September 2015
Temperature: 25.0°C (77°F)
Dewpoint: 0.0°C (32°F) [RH = 19%]
Pressure (altimeter): 30.21 inches Hg (1023.1 mb)
Winds: from the SSW (210 degrees) at 5 MPH (4 knots; 2.1 m/s)
Visibility: 10 or more miles (16+ km)
Ceiling: at least 12,000 feet AGL
Clouds: scattered clouds at 11000 feet AGL
Weather: automated observation with no human augmentation;
there may or may not be significant weather present at this time

METAR text: KMNH 022013Z AUTO 18005KT 10SM SCT120 27/01 A3021 RMK AO2
Conditions at: KMNH (MONUMENT/ELBERT , CO, US) observed 2013 UTC 02 September 2015
Temperature: 27.0°C (81°F)
Dewpoint: 1.0°C (34°F) [RH = 18%]
Pressure (altimeter): 30.21 inches Hg (1023.1 mb)
Winds: from the S (180 degrees) at 6 MPH (5 knots; 2.6 m/s)
Visibility: 10 or more miles (16+ km)
Ceiling: at least 12,000 feet AGL
Clouds: scattered clouds at 12000 feet AGL
Weather: automated observation with no human augmentation;
there may or may not be significant weather present at this time

METAR text: KMNH 021954Z AUTO 00000KT 10SM CLR 26/00 A3022 RMK AO2
Conditions at: KMNH (MONUMENT/ELBERT , CO, US) observed 1954 UTC 02 September 2015
Temperature: 26.0°C (79°F)
Dewpoint: 0.0°C (32°F) [RH = 18%]
Pressure (altimeter): 30.22 inches Hg (1023.5 mb)
Winds: calm
Visibility: 10 or more miles (16+ km)
Ceiling: at least 12,000 feet AGL
Clouds: sky clear below 12,000 feet AGL
Weather: automated observation with no human augmentation;
there may or may not be significant weather present at this time

METAR text: KMNH 021934Z AUTO 13005KT 10SM CLR 25/00 A3022 RMK AO2
Conditions at: KMNH (MONUMENT/ELBERT , CO, US) observed 1934 UTC 02 September 2015
Temperature: 25.0°C (77°F)
Dewpoint: 0.0°C (32°F) [RH = 19%]
Pressure (altimeter): 30.22 inches Hg (1023.5 mb)
Winds: from the SE (130 degrees) at 6 MPH (5 knots; 2.6 m/s)
Visibility: 10 or more miles (16+ km)
Ceiling: at least 12,000 feet AGL
Clouds: sky clear below 12,000 feet AGL
Weather: automated observation with no human augmentation;
there may or may not be significant weather present at this time

METAR text: KMNH 021914Z AUTO 02003KT 10SM CLR 26/00 A3023 RMK AO2
Conditions at: KMNH (MONUMENT/ELBERT , CO, US) observed 1914 UTC 02 September 2015
Temperature: 26.0°C (79°F)
Dewpoint: 0.0°C (32°F) [RH = 18%]
Pressure (altimeter): 30.23 inches Hg (1023.8 mb)
Winds: from the NNE (20 degrees) at 3 MPH (3 knots; 1.6 m/s)
Visibility: 10 or more miles (16+ km)
Ceiling: at least 12,000 feet AGL
Clouds: sky clear below 12,000 feet AGL
Weather: automated observation with no human augmentation;
there may or may not be significant weather present at this time

METAR text: KMNH 021854Z AUTO 28004KT 10SM CLR 26/00 A3024 RMK AO2
Conditions at: KMNH (MONUMENT/ELBERT , CO, US) observed 1854 UTC 02 September 2015
Temperature: 26.0°C (79°F)
Dewpoint: 0.0°C (32°F) [RH = 18%]
Pressure (altimeter): 30.24 inches Hg (1024.1 mb)
Winds: from the W (280 degrees) at 5 MPH (4 knots; 2.1 m/s)
Visibility: 10 or more miles (16+ km)
Ceiling: at least 12,000 feet AGL
Clouds: sky clear below 12,000 feet AGL
Weather: automated observation with no human augmentation;
there may or may not be significant weather present at this time

METAR text: KMNH 021834Z AUTO 00000KT 10SM CLR 26/00 A3024 RMK AO2
Conditions at: KMNH (MONUMENT/ELBERT , CO, US) observed 1834 UTC 02 September 2015
Temperature: 26.0°C (79°F)
Dewpoint: 0.0°C (32°F) [RH = 18%]
Pressure (altimeter): 30.24 inches Hg (1024.1 mb)
Winds: calm
Visibility: 10 or more miles (16+ km)
Ceiling: at least 12,000 feet AGL
Clouds: sky clear below 12,000 feet AGL
Weather: automated observation with no human augmentation;
there may or may not be significant weather present at this time

METAR text: KMNH 021814Z AUTO 00000KT 10SM CLR 25/01 A3024 RMK AO2
Conditions at: KMNH (MONUMENT/ELBERT , CO, US) observed 1814 UTC 02 September 2015
Temperature: 25.0°C (77°F)
Dewpoint: 1.0°C (34°F) [RH = 21%]
Pressure (altimeter): 30.24 inches Hg (1024.1 mb)
Winds: calm
Visibility: 10 or more miles (16+ km)
Ceiling: at least 12,000 feet AGL
Clouds: sky clear below 12,000 feet AGL
Weather: automated observation with no human augmentation;
there may or may not be significant weather present at this time

METAR text: KMNH 021754Z AUTO 02004KT 10SM CLR 25/01 A3025 RMK AO2
Conditions at: KMNH (MONUMENT/ELBERT , CO, US) observed 1754 UTC 02 September 2015
Temperature: 25.0°C (77°F)
Dewpoint: 1.0°C (34°F) [RH = 21%]
Pressure (altimeter): 30.25 inches Hg (1024.5 mb)
Winds: from the NNE (20 degrees) at 5 MPH (4 knots; 2.1 m/s)
Visibility: 10 or more miles (16+ km)
Ceiling: at least 12,000 feet AGL
Clouds: sky clear below 12,000 feet AGL
Weather: automated observation with no human augmentation;
there may or may not be significant weather present at this time

METAR text: KMNH 021734Z AUTO 01004KT 10SM CLR 25/01 A3026 RMK AO2
Conditions at: KMNH (MONUMENT/ELBERT , CO, US) observed 1734 UTC 02 September 2015
Temperature: 25.0°C (77°F)
Dewpoint: 1.0°C (34°F) [RH = 21%]
Pressure (altimeter): 30.26 inches Hg (1024.8 mb)
Winds: from the N (10 degrees) at 5 MPH (4 knots; 2.1 m/s)
Visibility: 10 or more miles (16+ km)
Ceiling: at least 12,000 feet AGL
Clouds: sky clear below 12,000 feet AGL
Weather: automated observation with no human augmentation;
there may or may not be significant weather present at this time

METAR text: KMNH 021714Z AUTO 33004KT 10SM CLR 25/01 A3026 RMK AO2
Conditions at: KMNH (MONUMENT/ELBERT , CO, US) observed 1714 UTC 02 September 2015
Temperature: 25.0°C (77°F)
Dewpoint: 1.0°C (34°F) [RH = 21%]
Pressure (altimeter): 30.26 inches Hg (1024.8 mb)
Winds: from the NNW (330 degrees) at 5 MPH (4 knots; 2.1 m/s)
Visibility: 10 or more miles (16+ km)
Ceiling: at least 12,000 feet AGL
Clouds: sky clear below 12,000 feet AGL
Weather: automated observation with no human augmentation;
there may or may not be significant weather present at this time

METAR text: KMNH 021653Z AUTO 33008KT 10SM CLR 25/01 A3026 RMK AO2
Conditions at: KMNH (MONUMENT/ELBERT , CO, US) observed 1653 UTC 02 September 2015
Temperature: 25.0°C (77°F)
Dewpoint: 1.0°C (34°F) [RH = 21%]
Pressure (altimeter): 30.26 inches Hg (1024.8 mb)
Winds: from the NNW (330 degrees) at 9 MPH (8 knots; 4.2 m/s)
Visibility: 10 or more miles (16+ km)
Ceiling: at least 12,000 feet AGL
Clouds: sky clear below 12,000 feet AGL
Weather: automated observation with no human augmentation;
there may or may not be significant weather present at this time

METAR text: KMNH 021634Z AUTO 34007G17KT 10SM CLR 24/02 A3026 RMK AO2
Conditions at: KMNH (MONUMENT/ELBERT , CO, US) observed 1634 UTC 02 September 2015
Temperature: 24.0°C (75°F)
Dewpoint: 2.0°C (36°F) [RH = 24%]
Pressure (altimeter): 30.26 inches Hg (1024.8 mb)
Winds: from the NNW (340 degrees) at 8 MPH (7 knots; 3.6 m/sgusting to 20 MPH (17 knots; 8.8 m/s)
Visibility: 10 or more miles (16+ km)
Ceiling: at least 12,000 feet AGL
Clouds: sky clear below 12,000 feet AGL
Weather: automated observation with no human augmentation;
there may or may not be significant weather present at this time

METAR text: KMNH 021613Z AUTO 31007KT 10SM CLR 23/02 A3026 RMK AO2
Conditions at: KMNH (MONUMENT/ELBERT , CO, US) observed 1613 UTC 02 September 2015
Temperature: 23.0°C (73°F)
Dewpoint: 2.0°C (36°F) [RH = 25%]
Pressure (altimeter): 30.26 inches Hg (1024.8 mb)
Winds: from the NW (310 degrees) at 8 MPH (7 knots; 3.6 m/s)
Visibility: 10 or more miles (16+ km)
Ceiling: at least 12,000 feet AGL
Clouds: sky clear below 12,000 feet AGL
Weather: automated observation with no human augmentation;
there may or may not be significant weather present at this time

METAR text: KMNH 021554Z AUTO 33007KT 10SM CLR 23/03 A3026 RMK AO2
Conditions at: KMNH (MONUMENT/ELBERT , CO, US) observed 1554 UTC 02 September 2015
Temperature: 23.0°C (73°F)
Dewpoint: 3.0°C (37°F) [RH = 27%]
Pressure (altimeter): 30.26 inches Hg (1024.8 mb)
Winds: from the NNW (330 degrees) at 8 MPH (7 knots; 3.6 m/s)
Visibility: 10 or more miles (16+ km)
Ceiling: at least 12,000 feet AGL
Clouds: sky clear below 12,000 feet AGL
Weather: automated observation with no human augmentation;
there may or may not be significant weather present at this time

METAR text: KMNH 021534Z AUTO 31007KT 10SM CLR 23/03 A3026 RMK AO2
Conditions at: KMNH (MONUMENT/ELBERT , CO, US) observed 1534 UTC 02 September 2015
Temperature: 23.0°C (73°F)
Dewpoint: 3.0°C (37°F) [RH = 27%]
Pressure (altimeter): 30.26 inches Hg (1024.8 mb)
Winds: from the NW (310 degrees) at 8 MPH (7 knots; 3.6 m/s)
Visibility: 10 or more miles (16+ km)
Ceiling: at least 12,000 feet AGL
Clouds: sky clear below 12,000 feet AGL
Weather: automated observation with no human augmentation;
there may or may not be significant weather present at this time

METAR text: KMNH 021514Z AUTO 30007KT 10SM CLR 21/05 A3026 RMK AO2
Conditions at: KMNH (MONUMENT/ELBERT , CO, US) observed 1514 UTC 02 September 2015
Temperature: 21.0°C (70°F)
Dewpoint: 5.0°C (41°F) [RH = 35%]
Pressure (altimeter): 30.26 inches Hg (1024.8 mb)
Winds: from the WNW (300 degrees) at 8 MPH (7 knots; 3.6 m/s)
Visibility: 10 or more miles (16+ km)
Ceiling: at least 12,000 feet AGL
Clouds: sky clear below 12,000 feet AGL
Weather: automated observation with no human augmentation;
there may or may not be significant weather present at this time

METAR text: KMNH 021454Z AUTO 28007KT 10SM CLR 21/04 A3026 RMK AO2
Conditions at: KMNH (MONUMENT/ELBERT , CO, US) observed 1454 UTC 02 September 2015
Temperature: 21.0°C (70°F)
Dewpoint: 4.0°C (39°F) [RH = 33%]
Pressure (altimeter): 30.26 inches Hg (1024.8 mb)
Winds: from the W (280 degrees) at 8 MPH (7 knots; 3.6 m/s)
Visibility: 10 or more miles (16+ km)
Ceiling: at least 12,000 feet AGL
Clouds: sky clear below 12,000 feet AGL
Weather: automated observation with no human augmentation;
there may or may not be significant weather present at this time

METAR text: KMNH 021434Z AUTO 26003KT 10SM CLR 19/04 A3025 RMK AO2
Conditions at: KMNH (MONUMENT/ELBERT , CO, US) observed 1434 UTC 02 September 2015
Temperature: 19.0°C (66°F)
Dewpoint: 4.0°C (39°F) [RH = 37%]
Pressure (altimeter): 30.25 inches Hg (1024.5 mb)
Winds: from the W (260 degrees) at 3 MPH (3 knots; 1.6 m/s)
Visibility: 10 or more miles (16+ km)
Ceiling: at least 12,000 feet AGL
Clouds: sky clear below 12,000 feet AGL
Weather: automated observation with no human augmentation;
there may or may not be significant weather present at this time

METAR text: KMNH 021414Z AUTO 27005KT 10SM CLR 18/05 A3025 RMK AO2
Conditions at: KMNH (MONUMENT/ELBERT , CO, US) observed 1414 UTC 02 September 2015
Temperature: 18.0°C (64°F)
Dewpoint: 5.0°C (41°F) [RH = 42%]
Pressure (altimeter): 30.25 inches Hg (1024.5 mb)
Winds: from the W (270 degrees) at 6 MPH (5 knots; 2.6 m/s)
Visibility: 10 or more miles (16+ km)
Ceiling: at least 12,000 feet AGL
Clouds: sky clear below 12,000 feet AGL
Weather: automated observation with no human augmentation;
there may or may not be significant weather present at this time

METAR text: KMNH 021354Z AUTO 25005KT 10SM CLR 17/05 A3025 RMK AO2
Conditions at: KMNH (MONUMENT/ELBERT , CO, US) observed 1354 UTC 02 September 2015
Temperature: 17.0°C (63°F)
Dewpoint: 5.0°C (41°F) [RH = 45%]
Pressure (altimeter): 30.25 inches Hg (1024.5 mb)
Winds: from the WSW (250 degrees) at 6 MPH (5 knots; 2.6 m/s)
Visibility: 10 or more miles (16+ km)
Ceiling: at least 12,000 feet AGL
Clouds: sky clear below 12,000 feet AGL
Weather: automated observation with no human augmentation;
there may or may not be significant weather present at this time

METAR text: KMNH 021334Z AUTO 25008KT 10SM CLR 17/05 A3024 RMK AO2
Conditions at: KMNH (MONUMENT/ELBERT , CO, US) observed 1334 UTC 02 September 2015
Temperature: 17.0°C (63°F)
Dewpoint: 5.0°C (41°F) [RH = 45%]
Pressure (altimeter): 30.24 inches Hg (1024.1 mb)
Winds: from the WSW (250 degrees) at 9 MPH (8 knots; 4.2 m/s)
Visibility: 10 or more miles (16+ km)
Ceiling: at least 12,000 feet AGL
Clouds: sky clear below 12,000 feet AGL
Weather: automated observation with no human augmentation;
there may or may not be significant weather present at this time